Time;durP1;ratioP1;P1;durP2;ratioP2;P2;SDS_P1;SDS_P2;PMS_P1;PMS_P2;Temp;Humidity;BMP_temperature;BMP_pressure;BME280_temperature;BME280_humidity;BME280_pressure;Samples;Min_cycle;Max_cycle;Signal;HPM_P1;HPM_P2
2022/12/26 00:00:10;;;;;;;0.00;0.00;;;;;;;6.25;85.09;100534.88;347485;28;1661;-72
2022/12/26 00:00:21;;;;;;;0.00;0.00;;;;;;;6.27;85.06;100535.72;346966;28;3949;-72
2022/12/26 00:00:31;;;;;;;0.00;0.00;;;;;;;6.28;85.32;100534.84;347319;28;1493;-72
2022/12/26 00:00:41;;;;;;;0.00;0.00;;;;;;;6.30;85.06;100535.69;344804;28;4852;-74
2022/12/26 00:00:59;;;;;;;0.00;0.00;;;;;;;6.32;85.07;100536.56;346110;28;7493;-73
2022/12/26 00:01:11;;;;;;;0.00;0.00;;;;;;;6.33;84.71;100538.28;345179;28;1645;-71
2022/12/26 00:01:22;;;;;;;0.00;0.00;;;;;;;6.36;84.80;100544.31;343115;28;3664;-71
2022/12/26 00:01:34;;;;;;;0.00;0.00;;;;;;;6.34;84.63;100534.81;344276;28;1876;-72
2022/12/26 00:01:46;;;;;;;0.00;0.00;;;;;;;6.38;84.54;100539.97;345731;28;6939;-72
2022/12/26 00:01:59;;;;;;;0.00;0.00;;;;;;;6.37;84.62;100540.84;349922;28;1226;-72
2022/12/26 00:02:09;;;;;;;0.00;0.00;;;;;;;6.39;84.92;100541.69;349400;28;1620;-72
2022/12/26 00:02:20;;;;;;;0.00;0.00;;;;;;;6.39;84.60;100539.09;349755;28;4035;-72
2022/12/26 00:02:30;;;;;;;0.00;0.00;;;;;;;6.41;84.44;100546.00;347183;28;1451;-72
2022/12/26 00:02:40;;;;;;;0.00;0.00;;;;;;;6.39;84.58;100541.69;342422;28;4886;-72
2022/12/26 00:02:51;;;;;;;0.00;0.00;;;;;;;6.37;84.83;100538.25;342640;28;3898;-72
2022/12/26 00:03:01;;;;;;;0.00;0.00;;;;;;;6.38;84.46;100542.56;346863;28;1412;-73
2022/12/26 00:03:11;;;;;;;0.00;0.00;;;;;;;6.38;84.34;100545.16;343606;28;1668;-72
2022/12/26 00:03:22;;;;;;;0.00;0.00;;;;;;;6.38;84.50;100547.78;342445;28;3984;-72
2022/12/26 00:03:32;;;;;;;0.00;0.00;;;;;;;6.37;84.32;100540.84;344385;28;1367;-72
2022/12/26 00:03:43;;;;;;;0.00;0.00;;;;;;;6.37;84.36;100544.31;342790;28;6167;-72
2022/12/26 00:03:55;;;;;;;0.00;0.00;;;;;;;6.36;84.14;100546.94;344164;28;3945;-72
2022/12/26 00:04:06;;;;;;;0.00;0.00;;;;;;;6.36;84.33;100541.72;345776;28;1383;-72
2022/12/26 00:04:16;;;;;;;0.00;0.00;;;;;;;6.36;84.33;100549.53;345997;28;2015;-72
2022/12/26 00:04:26;;;;;;;0.00;0.00;;;;;;;6.36;84.40;100541.72;344096;28;7006;-72
2022/12/26 00:04:37;;;;;;;0.00;0.00;;;;;;;6.36;84.79;100541.72;345163;28;4026;-72
2022/12/26 00:04:47;;;;;;;0.00;0.00;;;;;;;6.37;84.44;100546.06;344513;28;6869;-72
2022/12/26 00:04:57;;;;;;;0.00;0.00;;;;;;;6.36;84.39;100545.19;347299;28;4068;-72
2022/12/26 00:05:08;;;;;;;0.00;0.00;;;;;;;6.37;84.31;100543.44;341993;28;2316;-72
2022/12/26 00:05:18;;;;;;;0.00;0.00;;;;;;;6.36;84.27;100544.31;340348;28;3639;-72
2022/12/26 00:05:29;;;;;;;0.00;0.00;;;;;;;6.36;84.49;100546.94;343222;28;1593;-72
2022/12/26 00:05:40;;;;;;;0.00;0.00;;;;;;;6.36;84.42;100544.31;342590;28;6789;-72
2022/12/26 00:05:50;;;;;;;0.00;0.00;;;;;;;6.37;84.44;100546.06;344482;28;3981;-72
2022/12/26 00:06:00;;;;;;;0.00;0.00;;;;;;;6.37;84.26;100541.72;348544;28;1562;-72
2022/12/26 00:06:12;;;;;;;0.00;0.00;;;;;;;6.36;84.31;100540.00;346023;28;1474;-72
2022/12/26 00:06:26;;;;;;;0.00;0.00;;;;;;;6.39;84.35;100552.09;346061;28;4175;-72
2022/12/26 00:06:36;;;;;;;0.00;0.00;;;;;;;6.39;84.64;100552.97;341436;28;4003;-71
2022/12/26 00:06:47;;;;;;;0.00;0.00;;;;;;;6.41;84.12;100545.16;338421;28;6242;-71
2022/12/26 00:06:57;;;;;;;0.00;0.00;;;;;;;6.39;84.28;100546.91;341743;28;3368;-71
2022/12/26 00:07:08;;;;;;;0.00;0.00;;;;;;;6.38;84.51;100540.84;342066;28;1624;-71
2022/12/26 00:07:18;;;;;;;0.00;0.00;;;;;;;6.40;84.49;100543.41;344024;28;4025;-71
2022/12/26 00:07:29;;;;;;;0.00;0.00;;;;;;;6.40;84.28;100543.41;340788;28;1469;-71
2022/12/26 00:07:39;;;;;;;0.00;0.00;;;;;;;6.40;84.64;100544.28;339945;28;4807;-71
2022/12/26 00:07:49;;;;;;;0.00;0.00;;;;;;;6.39;84.30;100547.75;340125;28;6684;-71
2022/12/26 00:08:00;;;;;;;0.00;0.00;;;;;;;6.40;84.00;100544.28;340825;28;3937;-71
2022/12/26 00:08:10;;;;;;;0.00;0.00;;;;;;;6.42;84.32;100546.88;340283;29;1717;-71
2022/12/26 00:08:20;;;;;;;0.00;0.00;;;;;;;6.43;83.97;100543.41;338715;29;7373;-71
2022/12/26 00:08:31;;;;;;;0.00;0.00;;;;;;;6.42;83.93;100541.66;333926;29;1332;-71
2022/12/26 00:08:42;;;;;;;0.00;0.00;;;;;;;6.43;83.92;100549.47;331673;29;6393;-71
2022/12/26 00:08:53;;;;;;;0.00;0.00;;;;;;;6.43;83.88;100548.59;329366;29;3896;-71
2022/12/26 00:09:03;;;;;;;0.00;0.00;;;;;;;6.42;83.74;100545.13;332354;29;4256;-71
2022/12/26 00:09:14;;;;;;;0.00;0.00;;;;;;;6.44;83.63;100543.38;336741;28;2385;-71
2022/12/26 00:09:24;;;;;;;0.00;0.00;;;;;;;6.45;83.92;100546.84;331634;29;4016;-71
2022/12/26 00:09:35;;;;;;;0.00;0.00;;;;;;;6.45;83.86;100544.25;329904;29;3695;-71
2022/12/26 00:09:45;;;;;;;0.00;0.00;;;;;;;6.46;83.73;100544.22;330729;29;8074;-71
2022/12/26 00:09:56;;;;;;;0.00;0.00;;;;;;;6.47;83.41;100551.16;332723;29;3551;-71
2022/12/26 00:10:06;;;;;;;0.00;0.00;;;;;;;6.46;83.93;100554.63;333771;29;1639;-71
2022/12/26 00:10:17;;;;;;;0.00;0.00;;;;;;;6.48;83.63;100552.03;337879;29;4051;-71
2022/12/26 00:10:27;;;;;;;0.00;0.00;;;;;;;6.47;83.93;100545.97;339096;29;1579;-72
2022/12/26 00:10:38;;;;;;;0.00;0.00;;;;;;;6.48;83.52;100557.22;336318;29;6301;-72
2022/12/26 00:10:48;;;;;;;0.00;0.00;;;;;;;6.48;83.58;100552.03;336145;29;3991;-72
2022/12/26 00:10:58;;;;;;;0.00;0.00;;;;;;;6.48;83.60;100552.03;336858;29;3258;-72
2022/12/26 00:11:09;;;;;;;0.00;0.00;;;;;;;6.45;83.47;100547.72;334304;29;1936;-72
2022/12/26 00:11:20;;;;;;;0.00;0.00;;;;;;;6.45;83.70;100552.03;327162;30;4250;-72
2022/12/26 00:11:30;;;;;;;0.00;0.00;;;;;;;6.46;83.62;100552.03;327536;29;2227;-72
2022/12/26 00:11:40;;;;;;;0.00;0.00;;;;;;;6.46;83.48;100553.78;322059;30;7139;-72
2022/12/26 00:11:51;;;;;;;0.00;0.00;;;;;;;6.45;84.01;100552.03;325836;30;3552;-72
2022/12/26 00:12:01;;;;;;;0.00;0.00;;;;;;;6.48;83.45;100557.22;322664;30;2757;-72
2022/12/26 00:12:12;;;;;;;0.00;0.00;;;;;;;6.47;83.48;100551.16;322948;30;4568;-72
2022/12/26 00:12:22;;;;;;;0.00;0.00;;;;;;;6.49;83.72;100558.94;326625;30;1470;-72
2022/12/26 00:12:34;;;;;;;0.00;0.00;;;;;;;6.49;83.93;100558.94;327154;30;1902;-72
2022/12/26 00:12:44;;;;;;;0.00;0.00;;;;;;;6.50;83.22;100555.47;323219;30;7002;-72
2022/12/26 00:12:54;;;;;;;0.00;0.00;;;;;;;6.48;83.46;100550.28;324445;30;4094;-72
2022/12/26 00:13:05;;;;;;;0.00;0.00;;;;;;;6.47;83.40;100555.50;322149;30;1915;-72
2022/12/26 00:13:15;;;;;;;0.00;0.00;;;;;;;6.48;83.43;100557.22;319936;30;4087;-72
2022/12/26 00:13:26;;;;;;;0.00;0.00;;;;;;;6.47;83.57;100560.69;319892;30;2709;-72
2022/12/26 00:13:36;;;;;;;0.00;0.00;;;;;;;6.44;83.51;100555.53;316104;31;4895;-72
2022/12/26 00:13:47;;;;;;;0.00;0.00;;;;;;;6.39;83.97;100557.31;312740;31;7084;-72
2022/12/26 00:14:11;;;;;;;0.00;0.00;;;;;;;6.30;84.41;100551.28;312215;31;4816;-72
2022/12/26 00:14:21;;;;;;;0.00;0.00;;;;;;;6.27;84.12;100553.06;310911;31;4744;-72
2022/12/26 00:14:32;;;;;;;0.00;0.00;;;;;;;6.27;84.48;100555.66;311729;31;3732;-72
2022/12/26 00:14:42;;;;;;;0.00;0.00;;;;;;;6.28;84.32;100555.66;309720;31;5046;-72
2022/12/26 00:14:52;;;;;;;0.00;0.00;;;;;;;6.29;84.55;100557.38;310314;31;5009;-72
2022/12/26 00:15:03;;;;;;;0.00;0.00;;;;;;;6.30;84.69;100559.09;307950;31;6024;-72
2022/12/26 00:15:13;;;;;;;0.00;0.00;;;;;;;6.31;84.24;100560.81;310452;31;3092;-72
2022/12/26 00:15:24;;;;;;;0.00;0.00;;;;;;;6.32;84.66;100557.34;301662;32;5075;-72
2022/12/26 00:15:34;;;;;;;0.00;0.00;;;;;;;6.33;84.23;100561.66;298792;32;4107;-72
2022/12/26 00:15:44;;;;;;;0.00;0.00;;;;;;;6.34;84.41;100558.19;298127;32;7657;-72
2022/12/26 00:15:55;;;;;;;0.00;0.00;;;;;;;6.34;84.34;100555.59;299400;32;4693;-71
2022/12/26 00:16:09;;;;;;;0.00;0.00;;;;;;;6.34;84.75;100558.19;300664;32;6746;-71
2022/12/26 00:16:20;;;;;;;0.00;0.00;;;;;;;6.34;84.34;100555.59;296471;32;6773;-71
2022/12/26 00:16:32;;;;;;;0.00;0.00;;;;;;;6.34;84.70;100563.41;296807;32;4933;-71
2022/12/26 00:16:45;;;;;;;0.00;0.00;;;;;;;6.33;84.63;100559.06;297849;32;4943;-71
2022/12/26 00:16:55;;;;;;;0.00;0.00;;;;;;;6.30;84.87;100563.44;296890;33;3561;-71
2022/12/26 00:17:05;;;;;;;0.00;0.00;;;;;;;6.32;84.69;100565.16;296684;33;1574;-71
2022/12/26 00:17:16;;;;;;;0.00;0.00;;;;;;;6.32;84.81;100557.34;295514;33;3625;-71
2022/12/26 00:17:26;;;;;;;0.00;0.00;;;;;;;6.33;84.85;100564.28;294248;33;4431;-71
2022/12/26 00:17:37;;;;;;;0.00;0.00;;;;;;;6.33;84.61;100572.06;293233;33;1511;-71
2022/12/26 00:17:47;;;;;;;0.00;0.00;;;;;;;6.33;84.72;100559.06;293918;33;5607;-71
2022/12/26 00:17:57;;;;;;;0.00;0.00;;;;;;;6.36;84.83;100567.72;293440;33;5897;-71
2022/12/26 00:18:08;;;;;;;0.00;0.00;;;;;;;6.36;84.98;100563.38;294422;33;1545;-71
2022/12/26 00:18:18;;;;;;;0.00;0.00;;;;;;;6.39;84.44;100573.75;289550;33;6736;-71
2022/12/26 00:18:28;;;;;;;0.00;0.00;;;;;;;6.39;84.93;100565.97;289773;33;6390;-71
2022/12/26 00:18:39;;;;;;;0.00;0.00;;;;;;;6.41;84.54;100565.94;289778;33;6918;-71
2022/12/26 00:18:49;;;;;;;0.00;0.00;;;;;;;6.42;84.37;100567.66;289292;34;1438;-71
2022/12/26 00:19:00;;;;;;;0.00;0.00;;;;;;;6.42;84.71;100567.66;287680;34;7032;-71
2022/12/26 00:19:10;;;;;;;0.00;0.00;;;;;;;6.43;84.65;100569.41;287459;34;5053;-71
2022/12/26 00:19:20;;;;;;;0.00;0.00;;;;;;;6.41;84.14;100566.81;287902;34;1467;-72
2022/12/26 00:19:31;;;;;;;0.00;0.00;;;;;;;6.44;84.63;100571.13;287842;34;5170;-72
2022/12/26 00:19:42;;;;;;;0.00;0.00;;;;;;;6.42;84.74;100568.53;287849;34;6590;-72
2022/12/26 00:19:52;;;;;;;0.00;0.00;;;;;;;6.45;84.13;100565.91;286901;34;1479;-72
2022/12/26 00:20:03;;;;;;;0.00;0.00;;;;;;;6.45;84.35;100565.03;281877;34;8177;-72
2022/12/26 00:20:13;;;;;;;0.00;0.00;;;;;;;6.47;84.24;100574.56;282078;34;8211;-72
2022/12/26 00:20:24;;;;;;;0.00;0.00;;;;;;;6.46;84.16;100570.25;282544;34;8911;-71
2022/12/26 00:20:34;;;;;;;0.00;0.00;;;;;;;6.46;84.41;100571.97;285395;34;1223;-71
2022/12/26 00:20:45;;;;;;;0.00;0.00;;;;;;;6.47;84.26;100573.69;284777;34;9002;-71
2022/12/26 00:20:55;;;;;;;0.00;0.00;;;;;;;6.47;84.58;100571.09;282930;34;9223;-71
2022/12/26 00:21:06;;;;;;;0.00;0.00;;;;;;;6.45;84.21;100576.31;280410;35;1465;-71
2022/12/26 00:23:16;;;;;;;0.28;0.28;;;;;;;6.48;83.93;100578.88;2490153;27;20269;-72
2022/12/26 00:23:26;;;;;;;0.00;0.00;;;;;;;6.48;84.50;100578.03;351591;28;1668;-72
2022/12/26 00:23:37;;;;;;;0.00;0.00;;;;;;;6.48;84.92;100571.09;345552;28;4779;-72
2022/12/26 00:23:47;;;;;;;0.00;0.00;;;;;;;6.48;84.23;100578.03;346815;28;1473;-72
2022/12/26 00:23:58;;;;;;;0.00;0.00;;;;;;;6.48;84.56;100575.41;347138;28;1438;-72
2022/12/26 00:24:09;;;;;;;0.00;0.00;;;;;;;6.48;84.45;100572.81;348525;28;1438;-72
2022/12/26 00:24:19;;;;;;;0.00;0.00;;;;;;;6.49;84.44;100579.75;348583;28;1645;-72
2022/12/26 00:24:30;;;;;;;0.00;0.00;;;;;;;6.48;84.42;100567.63;348082;28;4117;-72
2022/12/26 00:24:40;;;;;;;0.00;0.00;;;;;;;6.49;84.23;100570.22;346212;28;6711;-71
2022/12/26 00:24:50;;;;;;;0.00;0.00;;;;;;;6.49;84.13;100570.22;348089;28;4063;-71
2022/12/26 00:25:01;;;;;;;0.00;0.00;;;;;;;6.49;84.10;100575.41;351122;28;2502;-72
2022/12/26 00:25:11;;;;;;;0.00;0.00;;;;;;;6.51;84.17;100583.16;350921;28;4200;-72
2022/12/26 00:25:22;;;;;;;0.00;0.00;;;;;;;6.49;84.05;100575.41;350459;28;1484;-72
2022/12/26 00:25:33;;;;;;;0.00;0.00;;;;;;;6.48;84.38;100573.69;347599;28;6589;-72
2022/12/26 00:25:43;;;;;;;0.00;0.00;;;;;;;6.49;84.45;100574.53;348218;28;3658;-72
2022/12/26 00:25:54;;;;;;;0.00;0.00;;;;;;;6.46;84.29;100565.03;348228;28;5054;-72
2022/12/26 00:26:06;;;;;;;0.00;0.00;;;;;;;6.45;84.66;100568.50;348239;28;1724;-72
2022/12/26 00:26:18;;;;;;;0.00;0.00;;;;;;;6.46;84.85;100574.56;348608;28;4389;-72
2022/12/26 00:26:29;;;;;;;0.00;0.00;;;;;;;6.44;84.76;100577.19;347424;28;1589;-72
2022/12/26 00:26:39;;;;;;;0.00;0.00;;;;;;;6.44;84.75;100573.72;343582;28;7766;-72
2022/12/26 00:26:50;;;;;;;0.00;0.00;;;;;;;6.42;85.17;100572.88;344909;28;3899;-72
2022/12/26 00:27:00;;;;;;;0.00;0.00;;;;;;;6.41;85.27;100565.94;345557;28;1636;-72
2022/12/26 00:27:11;;;;;;;0.00;0.00;;;;;;;6.39;85.34;100571.16;345243;28;4066;-72
2022/12/26 00:27:21;;;;;;;0.00;0.00;;;;;;;6.40;85.38;100567.69;346760;28;1526;-72
2022/12/26 00:27:31;;;;;;;0.00;0.00;;;;;;;6.40;84.97;100574.63;346902;28;6084;-72
2022/12/26 00:27:42;;;;;;;0.00;0.00;;;;;;;6.39;85.44;100573.75;343288;28;7064;-72
2022/12/26 00:27:52;;;;;;;0.00;0.00;;;;;;;6.40;85.28;100578.09;344155;28;1923;-72
2022/12/26 00:28:03;;;;;;;0.00;0.00;;;;;;;6.40;85.11;100574.63;345021;28;1499;-72
2022/12/26 00:28:13;;;;;;;0.00;0.00;;;;;;;6.39;85.32;100578.97;345624;28;4016;-72
2022/12/26 00:28:23;;;;;;;0.00;0.00;;;;;;;6.41;85.50;100584.16;346786;28;1348;-72
2022/12/26 00:28:34;;;;;;;0.00;0.00;;;;;;;6.40;85.58;100577.22;344519;28;6344;-72
2022/12/26 00:28:44;;;;;;;0.00;0.00;;;;;;;6.39;85.29;100578.97;347941;28;3914;-72
2022/12/26 00:28:55;;;;;;;0.00;0.00;;;;;;;6.38;84.96;100577.22;345667;28;1335;-72
2022/12/26 00:29:05;;;;;;;0.00;0.00;;;;;;;6.40;85.17;100579.81;346689;28;6485;-72
2022/12/26 00:29:15;;;;;;;0.00;0.00;;;;;;;6.38;84.89;100576.38;346867;28;1447;-72
2022/12/26 00:29:26;;;;;;;0.00;0.00;;;;;;;6.39;84.84;100575.50;345177;28;1447;-72
2022/12/26 00:29:36;;;;;;;0.00;0.00;;;;;;;6.38;85.18;100576.38;342276;28;6536;-72
2022/12/26 00:29:47;;;;;;;0.00;0.00;;;;;;;6.39;85.36;100583.28;343873;28;4626;-72
2022/12/26 00:29:57;;;;;;;0.00;0.00;;;;;;;6.38;84.52;100578.97;345190;28;1783;-72
2022/12/26 00:30:08;;;;;;;0.00;0.00;;;;;;;6.37;84.82;100579.84;341471;28;1980;-72
2022/12/26 00:30:18;;;;;;;0.00;0.00;;;;;;;6.36;85.23;100578.97;344295;28;1344;-73
2022/12/26 00:30:29;;;;;;;0.00;0.00;;;;;;;6.36;84.71;100576.38;343616;28;4235;-73
2022/12/26 00:30:39;;;;;;;0.00;0.00;;;;;;;6.36;84.84;100578.13;342185;28;6606;-73
2022/12/26 00:30:49;;;;;;;0.00;0.00;;;;;;;6.36;84.47;100570.31;342398;28;2045;-73
2022/12/26 00:31:15;;;;;;;0.00;0.00;;;;;;;6.34;84.93;100573.78;342351;28;1688;-73
2022/12/26 00:31:27;;;;;;;0.00;0.00;;;;;;;6.36;84.59;100578.13;339638;28;3878;-73
2022/12/26 00:31:37;;;;;;;0.00;0.00;;;;;;;6.35;84.61;100577.25;337049;29;6872;-72
2022/12/26 00:31:48;;;;;;;0.00;0.00;;;;;;;6.34;84.41;100571.19;340342;28;2050;-72
2022/12/26 00:31:58;;;;;;;0.00;0.00;;;;;;;6.36;84.63;100575.53;341575;28;1747;-72
2022/12/26 00:32:09;;;;;;;0.00;0.00;;;;;;;6.34;84.76;100576.41;340025;28;4002;-72
2022/12/26 00:32:19;;;;;;;0.00;0.00;;;;;;;6.33;84.30;100579.88;337994;29;1474;-72
2022/12/26 00:32:30;;;;;;;0.00;0.00;;;;;;;6.33;84.41;100585.06;336961;29;4824;-72
2022/12/26 00:32:40;;;;;;;0.00;0.00;;;;;;;6.33;85.04;100585.06;337733;29;7331;-72
2022/12/26 00:32:50;;;;;;;0.00;0.00;;;;;;;6.31;84.52;100576.41;338731;28;1485;-72
2022/12/26 00:33:01;;;;;;;0.00;0.00;;;;;;;6.30;84.41;100577.28;339084;29;1573;-72
2022/12/26 00:33:11;;;;;;;0.00;0.00;;;;;;;6.29;84.38;100577.31;331522;29;4165;-72
2022/12/26 00:33:21;;;;;;;0.00;0.00;;;;;;;6.29;84.33;100580.75;330695;29;4167;-72
2022/12/26 00:33:34;;;;;;;0.00;0.00;;;;;;;6.28;85.02;100579.03;330482;29;6893;-72
2022/12/26 00:33:44;;;;;;;0.00;0.00;;;;;;;6.28;84.60;100580.78;334557;29;2106;-72
2022/12/26 00:33:55;;;;;;;0.00;0.00;;;;;;;6.27;84.59;100574.72;333293;29;2131;-72
2022/12/26 00:34:05;;;;;;;0.00;0.00;;;;;;;6.29;84.55;100578.16;333721;29;4136;-72
2022/12/26 00:34:15;;;;;;;0.00;0.00;;;;;;;6.28;84.58;100581.63;332840;29;1400;-72
2022/12/26 00:34:26;;;;;;;0.00;0.00;;;;;;;6.27;84.52;100581.66;331701;29;3954;-72
2022/12/26 00:34:36;;;;;;;0.00;0.00;;;;;;;6.25;84.94;100579.06;327741;29;6499;-72
2022/12/26 00:34:47;;;;;;;0.00;0.00;;;;;;;6.25;84.39;100584.25;329490;29;3667;-72
2022/12/26 00:34:57;;;;;;;0.00;0.00;;;;;;;6.23;85.17;100578.22;332145;29;1854;-72
2022/12/26 00:35:07;;;;;;;0.00;0.00;;;;;;;6.23;85.12;100580.81;329160;29;4110;-72
2022/12/26 00:35:18;;;;;;;0.00;0.00;;;;;;;6.24;85.28;100574.75;327899;30;1319;-72
2022/12/26 00:35:28;;;;;;;0.00;0.00;;;;;;;6.23;84.95;100578.22;328204;29;3862;-72
2022/12/26 00:35:39;;;;;;;0.00;0.00;;;;;;;6.24;85.03;100577.34;325620;29;7002;-72
2022/12/26 00:35:49;;;;;;;0.00;0.00;;;;;;;6.25;84.66;100586.00;325623;30;4109;-72
2022/12/26 00:36:01;;;;;;;0.00;0.00;;;;;;;6.24;84.80;100576.47;324811;30;2605;-72
2022/12/26 00:36:20;;;;;;;0.00;0.00;;;;;;;6.23;85.03;100577.34;325819;30;4258;-72
2022/12/26 00:36:31;;;;;;;0.00;0.00;;;;;;;6.23;84.76;100572.16;316158;31;4929;-72
2022/12/26 00:36:41;;;;;;;0.00;0.00;;;;;;;6.25;84.86;100576.47;314144;31;6787;-72
2022/12/26 00:36:52;;;;;;;0.00;0.00;;;;;;;6.27;84.68;100581.66;317153;30;2224;-72
2022/12/26 00:37:02;;;;;;;0.00;0.00;;;;;;;6.24;84.93;100579.94;316873;31;1980;-72
2022/12/26 00:37:12;;;;;;;0.00;0.00;;;;;;;6.24;85.17;100582.53;315268;30;6802;-72
2022/12/26 00:37:23;;;;;;;0.00;0.00;;;;;;;6.24;85.27;100579.94;312028;31;2551;-72
2022/12/26 00:37:33;;;;;;;0.00;0.00;;;;;;;6.23;85.17;100583.41;312441;31;4895;-72
2022/12/26 00:37:44;;;;;;;0.00;0.00;;;;;;;6.22;84.94;100586.88;315088;30;7273;-72
2022/12/26 00:37:54;;;;;;;0.00;0.00;;;;;;;6.19;85.20;100584.31;317348;30;3499;-72
2022/12/26 00:38:04;;;;;;;0.00;0.00;;;;;;;6.17;85.40;100583.44;317784;31;2031;-72
2022/12/26 00:38:15;;;;;;;0.00;0.00;;;;;;;6.13;85.24;100592.13;313525;31;4058;-72
2022/12/26 00:38:25;;;;;;;0.00;0.00;;;;;;;6.09;85.66;100587.84;315610;31;3647;-72
2022/12/26 00:38:36;;;;;;;0.00;0.00;;;;;;;6.08;85.71;100583.50;314207;31;6428;-72
2022/12/26 00:38:46;;;;;;;0.00;0.00;;;;;;;6.05;85.99;100588.75;316406;31;3923;-72
2022/12/26 00:38:58;;;;;;;0.00;0.00;;;;;;;6.07;86.06;100591.31;314231;31;2288;-72
2022/12/26 00:39:08;;;;;;;0.00;0.00;;;;;;;6.05;85.93;100586.16;309324;31;4211;-72
2022/12/26 00:39:18;;;;;;;0.00;0.00;;;;;;;6.07;85.83;100586.97;310742;31;1400;-72
2022/12/26 00:39:29;;;;;;;0.00;0.00;;;;;;;6.07;86.32;100586.13;312652;31;4388;-72
2022/12/26 00:39:39;;;;;;;0.00;0.00;;;;;;;6.06;85.88;100598.28;309691;31;4186;-72
2022/12/26 00:39:50;;;;;;;0.00;0.00;;;;;;;6.04;86.55;100592.22;310342;31;2108;-72
2022/12/26 00:40:00;;;;;;;0.00;0.00;;;;;;;6.03;86.24;100594.84;309546;31;4166;-72
2022/12/26 00:40:10;;;;;;;0.00;0.00;;;;;;;6.01;86.32;100592.25;310578;31;4648;-72
2022/12/26 00:40:21;;;;;;;0.00;0.00;;;;;;;5.99;86.10;100594.00;306760;32;4865;-72
2022/12/26 00:40:31;;;;;;;0.00;0.00;;;;;;;5.99;86.55;100584.47;303959;32;6306;-72
2022/12/26 00:40:43;;;;;;;0.00;0.00;;;;;;;6.00;86.72;100594.00;307877;31;4524;-72
2022/12/26 00:40:54;;;;;;;0.00;0.00;;;;;;;6.00;86.60;100595.72;308064;31;4586;-72
2022/12/26 00:41:04;;;;;;;0.00;0.00;;;;;;;6.00;86.56;100594.00;304537;32;3613;-72
2022/12/26 00:41:15;;;;;;;0.00;0.00;;;;;;;5.95;86.80;100598.34;304657;32;3263;-72
2022/12/26 00:41:26;;;;;;;0.00;0.00;;;;;;;5.92;87.16;100597.50;302993;32;4087;-72
2022/12/26 00:41:37;;;;;;;0.00;0.00;;;;;;;5.89;87.50;100594.91;301108;32;4131;-70
2022/12/26 00:41:47;;;;;;;0.00;0.00;;;;;;;5.86;87.24;100593.16;300969;32;4263;-71
2022/12/26 00:41:57;;;;;;;0.00;0.00;;;;;;;5.86;87.19;100593.16;300567;32;4935;-71
2022/12/26 00:42:08;;;;;;;0.00;0.00;;;;;;;5.84;87.67;100589.72;299109;32;5692;-71
2022/12/26 00:42:18;;;;;;;0.00;0.00;;;;;;;5.83;87.35;100588.00;298491;32;1391;-71
2022/12/26 00:42:28;;;;;;;0.00;0.00;;;;;;;5.81;87.64;100588.88;294234;32;6886;-71
2022/12/26 00:42:39;;;;;;;0.00;0.00;;;;;;;5.79;87.48;100588.00;296750;32;6514;-71
2022/12/26 00:42:49;;;;;;;0.00;0.00;;;;;;;5.79;87.59;100590.63;296096;33;1515;-71
2022/12/26 00:43:00;;;;;;;0.00;0.00;;;;;;;5.75;88.07;100589.75;294082;33;6334;-71
2022/12/26 00:43:10;;;;;;;0.00;0.00;;;;;;;5.77;88.48;100592.34;294191;32;6506;-71
2022/12/26 00:43:20;;;;;;;0.00;0.00;;;;;;;5.77;88.43;100597.56;294396;33;4641;-71
2022/12/26 00:43:31;;;;;;;0.00;0.00;;;;;;;5.78;88.46;100594.09;294204;33;7627;-71
2022/12/26 00:43:41;;;;;;;0.00;0.00;;;;;;;5.80;88.03;100592.34;292553;33;4520;-71
2022/12/26 00:43:52;;;;;;;0.00;0.00;;;;;;;5.84;87.93;100589.72;291379;33;5784;-71
2022/12/26 00:44:02;;;;;;;0.00;0.00;;;;;;;5.87;87.97;100594.91;288796;34;4353;-71
2022/12/26 00:44:13;;;;;;;0.00;0.00;;;;;;;5.90;88.17;100594.06;286044;34;6926;-71
2022/12/26 00:44:23;;;;;;;0.00;0.00;;;;;;;5.92;88.07;100600.09;286634;34;8033;-71
2022/12/26 00:44:34;;;;;;;0.00;0.00;;;;;;;5.92;87.99;100590.56;289654;34;1481;-71
2022/12/26 00:44:44;;;;;;;0.00;0.00;;;;;;;5.94;88.03;100590.56;287768;34;9012;-71
2022/12/26 00:44:54;;;;;;;0.00;0.00;;;;;;;5.96;87.56;100589.69;287147;34;8853;-72
2022/12/26 00:45:05;;;;;;;0.00;0.00;;;;;;;5.99;87.64;100594.84;286862;34;1443;-72
2022/12/26 00:45:16;;;;;;;0.00;0.00;;;;;;;6.01;87.30;100592.25;285103;34;1500;-72
2022/12/26 00:45:26;;;;;;;0.00;0.00;;;;;;;6.04;87.22;100591.38;281568;34;5687;-72
2022/12/26 00:45:36;;;;;;;0.00;0.00;;;;;;;6.05;87.67;100590.50;279524;35;6313;-72
2022/12/26 00:45:47;;;;;;;0.00;0.00;;;;;;;6.08;86.86;100598.25;277924;35;1515;-72
2022/12/26 00:45:58;;;;;;;0.00;0.00;;;;;;;6.08;86.93;100590.44;274624;35;6510;-72
2022/12/26 00:46:08;;;;;;;0.00;0.00;;;;;;;6.09;86.87;100595.63;272059;35;8867;-72
2022/12/26 00:46:19;;;;;;;0.00;0.00;;;;;;;6.10;86.92;100597.34;271801;36;1305;-72
2022/12/26 00:46:29;;;;;;;0.00;0.00;;;;;;;6.11;86.86;100588.69;268403;36;10210;-72
2022/12/26 00:48:27;;;;;;;0.23;0.23;;;;;;;6.15;86.31;100595.59;2488546;27;20288;-70
2022/12/26 00:48:37;;;;;;;0.00;0.00;;;;;;;6.16;86.70;100591.25;352935;27;1506;-70
2022/12/26 00:48:48;;;;;;;0.00;0.00;;;;;;;6.17;86.55;100599.03;351240;28;1576;-70
2022/12/26 00:48:59;;;;;;;0.00;0.00;;;;;;;6.18;86.26;100594.72;352722;28;1540;-70
2022/12/26 00:49:09;;;;;;;0.00;0.00;;;;;;;6.18;86.04;100587.78;351083;28;1456;-72
2022/12/26 00:49:19;;;;;;;0.00;0.00;;;;;;;6.20;86.25;100595.56;348345;28;1454;-71
2022/12/26 00:49:30;;;;;;;0.00;0.00;;;;;;;6.20;86.17;100593.81;348459;28;1382;-71
2022/12/26 00:49:40;;;;;;;0.00;0.00;;;;;;;6.20;86.25;100591.22;348423;28;1434;-71
2022/12/26 00:49:51;;;;;;;0.00;0.00;;;;;;;6.21;86.22;100590.34;349653;28;1319;-71
2022/12/26 00:50:01;;;;;;;0.00;0.00;;;;;;;6.21;85.90;100590.34;351132;28;1532;-71
2022/12/26 00:50:11;;;;;;;0.00;0.00;;;;;;;6.22;86.34;100593.81;352585;28;1543;-72
2022/12/26 00:50:22;;;;;;;0.00;0.00;;;;;;;6.22;85.90;100592.06;349659;28;1473;-72
2022/12/26 00:50:32;;;;;;;0.00;0.00;;;;;;;6.22;85.96;100588.63;349500;28;1609;-72
2022/12/26 00:50:42;;;;;;;0.00;0.00;;;;;;;6.21;86.13;100587.75;348584;28;1493;-72
2022/12/26 00:50:53;;;;;;;0.00;0.00;;;;;;;6.19;86.23;100592.09;347756;28;1482;-72
2022/12/26 00:51:03;;;;;;;0.00;0.00;;;;;;;6.18;86.31;100592.97;345734;28;1383;-72
2022/12/26 00:51:14;;;;;;;0.00;0.00;;;;;;;6.14;86.29;100595.59;346890;28;1519;-72
2022/12/26 00:51:24;;;;;;;0.00;0.00;;;;;;;6.11;86.31;100593.88;345532;28;1823;-72
2022/12/26 00:51:35;;;;;;;0.00;0.00;;;;;;;6.12;86.63;100594.75;347451;28;4001;-72
2022/12/26 00:51:45;;;;;;;0.00;0.00;;;;;;;6.11;86.24;100588.69;347041;28;5998;-71
2022/12/26 00:51:55;;;;;;;0.00;0.00;;;;;;;6.11;86.67;100593.88;348140;28;4099;-72
2022/12/26 00:52:06;;;;;;;0.00;0.00;;;;;;;6.11;86.48;100593.88;347518;28;1648;-72
2022/12/26 00:52:16;;;;;;;0.00;0.00;;;;;;;6.10;86.57;100588.69;348138;28;4208;-72
2022/12/26 00:52:27;;;;;;;0.00;0.00;;;;;;;6.10;86.65;100592.16;343019;28;1573;-72
2022/12/26 00:52:37;;;;;;;0.00;0.00;;;;;;;6.10;87.14;100593.91;341843;28;4890;-72
2022/12/26 00:52:47;;;;;;;0.00;0.00;;;;;;;6.09;86.70;100593.03;342763;28;6753;-72
2022/12/26 00:52:58;;;;;;;0.00;0.00;;;;;;;6.10;86.98;100596.50;346794;28;4374;-72
2022/12/26 00:53:08;;;;;;;0.00;0.00;;;;;;;6.11;87.12;100596.50;348080;28;1544;-72
2022/12/26 00:53:18;;;;;;;0.00;0.00;;;;;;;6.09;86.98;100593.03;345620;28;3986;-72
2022/12/26 00:53:29;;;;;;;0.00;0.00;;;;;;;6.09;86.95;100590.44;347267;28;1569;-72
2022/12/26 00:53:39;;;;;;;0.00;0.00;;;;;;;6.09;86.51;100590.44;341180;28;6817;-72
2022/12/26 00:53:50;;;;;;;0.00;0.00;;;;;;;6.10;86.58;100592.16;346620;28;3994;-72
2022/12/26 00:54:00;;;;;;;0.00;0.00;;;;;;;6.10;86.89;100586.97;347424;28;1811;-72
2022/12/26 00:54:10;;;;;;;0.00;0.00;;;;;;;6.10;86.75;100592.16;348964;28;4005;-72
2022/12/26 00:54:21;;;;;;;0.00;0.00;;;;;;;6.10;86.83;100586.97;349022;28;1493;-72
2022/12/26 00:54:31;;;;;;;0.00;0.00;;;;;;;6.12;86.68;100590.41;345134;28;4960;-72
2022/12/26 00:54:42;;;;;;;0.00;0.00;;;;;;;6.13;86.82;100594.75;345146;28;6645;-72
2022/12/26 00:54:52;;;;;;;0.00;0.00;;;;;;;6.13;86.32;100581.75;342416;28;4037;-72
2022/12/26 00:55:03;;;;;;;0.00;0.00;;;;;;;6.14;86.54;100593.88;344493;28;1639;-71
2022/12/26 00:55:13;;;;;;;0.00;0.00;;;;;;;6.14;86.59;100593.88;345860;28;3896;-71
2022/12/26 00:55:24;;;;;;;0.00;0.00;;;;;;;6.14;86.17;100596.47;346825;28;1526;-71
2022/12/26 00:55:34;;;;;;;0.00;0.00;;;;;;;6.14;86.71;100593.88;345213;28;3839;-71